sensor_id;sensor_type;location;lat;lon;timestamp;P1;durP1;ratioP1;P2;durP2;ratioP2
45136;SDS011;30894;51.740;19.498;2023-06-10T00:02:22;6.50;;;4.13;;
45136;SDS011;30894;51.740;19.498;2023-06-10T00:04:48;9.20;;;4.68;;
45136;SDS011;30894;51.740;19.498;2023-06-10T00:07:17;6.63;;;4.50;;
45136;SDS011;30894;51.740;19.498;2023-06-10T00:09:42;5.95;;;3.70;;
45136;SDS011;30894;51.740;19.498;2023-06-10T00:12:09;9.25;;;4.57;;
45136;SDS011;30894;51.740;19.498;2023-06-10T00:14:36;6.97;;;4.32;;
45136;SDS011;30894;51.740;19.498;2023-06-10T00:17:04;6.82;;;4.15;;
45136;SDS011;30894;51.740;19.498;2023-06-10T00:19:35;9.90;;;4.90;;
45136;SDS011;30894;51.740;19.498;2023-06-10T00:22:03;6.47;;;4.30;;
45136;SDS011;30894;51.740;19.498;2023-06-10T00:24:30;11.00;;;4.60;;
45136;SDS011;30894;51.740;19.498;2023-06-10T00:26:56;6.35;;;4.38;;
45136;SDS011;30894;51.740;19.498;2023-06-10T00:29:22;6.75;;;4.90;;
45136;SDS011;30894;51.740;19.498;2023-06-10T00:31:48;6.32;;;4.38;;
45136;SDS011;30894;51.740;19.498;2023-06-10T00:34:14;8.50;;;5.32;;
45136;SDS011;30894;51.740;19.498;2023-06-10T00:36:40;7.40;;;4.90;;
45136;SDS011;30894;51.740;19.498;2023-06-10T00:39:08;7.35;;;4.88;;
45136;SDS011;30894;51.740;19.498;2023-06-10T00:41:34;7.38;;;4.72;;
45136;SDS011;30894;51.740;19.498;2023-06-10T00:44:00;7.50;;;5.05;;
45136;SDS011;30894;51.740;19.498;2023-06-10T00:46:26;7.47;;;4.65;;
45136;SDS011;30894;51.740;19.498;2023-06-10T00:48:52;14.05;;;5.28;;
45136;SDS011;30894;51.740;19.498;2023-06-10T00:51:19;6.90;;;4.60;;
45136;SDS011;30894;51.740;19.498;2023-06-10T00:53:46;10.85;;;5.47;;
45136;SDS011;30894;51.740;19.498;2023-06-10T00:56:13;9.38;;;5.00;;
45136;SDS011;30894;51.740;19.498;2023-06-10T00:58:39;9.00;;;5.28;;
45136;SDS011;30894;51.740;19.498;2023-06-10T01:01:06;8.25;;;5.50;;
45136;SDS011;30894;51.740;19.498;2023-06-10T01:03:32;9.27;;;5.50;;
45136;SDS011;30894;51.740;19.498;2023-06-10T01:08:45;7.97;;;4.40;;
45136;SDS011;30894;51.740;19.498;2023-06-10T01:11:28;8.25;;;5.30;;
45136;SDS011;30894;51.740;19.498;2023-06-10T01:14:01;8.35;;;4.97;;
45136;SDS011;30894;51.740;19.498;2023-06-10T01:16:33;7.57;;;5.00;;
45136;SDS011;30894;51.740;19.498;2023-06-10T01:19:02;6.85;;;4.90;;
45136;SDS011;30894;51.740;19.498;2023-06-10T01:21:29;8.27;;;4.57;;
45136;SDS011;30894;51.740;19.498;2023-06-10T01:23:56;7.07;;;4.70;;
45136;SDS011;30894;51.740;19.498;2023-06-10T01:26:24;8.43;;;5.00;;
45136;SDS011;30894;51.740;19.498;2023-06-10T01:28:59;9.95;;;5.20;;
45136;SDS011;30894;51.740;19.498;2023-06-10T01:31:36;7.85;;;4.63;;
45136;SDS011;30894;51.740;19.498;2023-06-10T01:34:12;9.13;;;6.10;;
45136;SDS011;30894;51.740;19.498;2023-06-10T01:36:44;10.13;;;4.97;;
45136;SDS011;30894;51.740;19.498;2023-06-10T01:39:17;7.13;;;4.90;;
45136;SDS011;30894;51.740;19.498;2023-06-10T01:41:48;10.30;;;5.70;;
45136;SDS011;30894;51.740;19.498;2023-06-10T01:44:18;10.63;;;5.20;;
45136;SDS011;30894;51.740;19.498;2023-06-10T01:46:46;8.10;;;5.22;;
45136;SDS011;30894;51.740;19.498;2023-06-10T01:49:12;10.35;;;4.85;;
45136;SDS011;30894;51.740;19.498;2023-06-10T01:51:39;8.27;;;5.28;;
45136;SDS011;30894;51.740;19.498;2023-06-10T01:54:05;11.05;;;5.68;;
45136;SDS011;30894;51.740;19.498;2023-06-10T01:56:32;8.23;;;5.18;;
45136;SDS011;30894;51.740;19.498;2023-06-10T01:58:58;8.10;;;5.10;;
45136;SDS011;30894;51.740;19.498;2023-06-10T02:01:25;8.13;;;5.18;;
45136;SDS011;30894;51.740;19.498;2023-06-10T02:03:51;7.63;;;5.05;;
45136;SDS011;30894;51.740;19.498;2023-06-10T02:06:18;7.63;;;5.22;;
45136;SDS011;30894;51.740;19.498;2023-06-10T02:08:44;9.32;;;5.15;;
45136;SDS011;30894;51.740;19.498;2023-06-10T02:11:11;8.77;;;5.20;;
45136;SDS011;30894;51.740;19.498;2023-06-10T02:13:38;8.13;;;5.28;;
45136;SDS011;30894;51.740;19.498;2023-06-10T02:16:07;8.85;;;5.13;;
45136;SDS011;30894;51.740;19.498;2023-06-10T02:18:32;6.50;;;4.90;;
45136;SDS011;30894;51.740;19.498;2023-06-10T02:20:59;7.43;;;4.80;;
45136;SDS011;30894;51.740;19.498;2023-06-10T02:23:25;9.77;;;5.80;;
45136;SDS011;30894;51.740;19.498;2023-06-10T02:25:51;11.63;;;6.10;;
45136;SDS011;30894;51.740;19.498;2023-06-10T02:28:17;8.57;;;6.18;;
45136;SDS011;30894;51.740;19.498;2023-06-10T02:30:43;8.48;;;5.90;;
45136;SDS011;30894;51.740;19.498;2023-06-10T02:33:09;7.70;;;5.03;;
45136;SDS011;30894;51.740;19.498;2023-06-10T02:35:39;7.65;;;5.65;;
45136;SDS011;30894;51.740;19.498;2023-06-10T02:38:05;9.75;;;5.60;;
45136;SDS011;30894;51.740;19.498;2023-06-10T02:40:33;8.43;;;5.50;;
45136;SDS011;30894;51.740;19.498;2023-06-10T02:42:59;11.30;;;5.35;;
45136;SDS011;30894;51.740;19.498;2023-06-10T02:45:25;9.27;;;5.57;;
45136;SDS011;30894;51.740;19.498;2023-06-10T02:47:51;10.10;;;6.07;;
45136;SDS011;30894;51.740;19.498;2023-06-10T02:50:17;7.75;;;5.43;;
45136;SDS011;30894;51.740;19.498;2023-06-10T02:52:44;6.93;;;5.13;;
45136;SDS011;30894;51.740;19.498;2023-06-10T02:55:10;8.32;;;5.28;;
45136;SDS011;30894;51.740;19.498;2023-06-10T02:57:36;7.43;;;5.28;;
45136;SDS011;30894;51.740;19.498;2023-06-10T03:00:02;7.05;;;4.97;;
45136;SDS011;30894;51.740;19.498;2023-06-10T03:02:35;7.93;;;5.27;;
45136;SDS011;30894;51.740;19.498;2023-06-10T03:05:04;8.55;;;5.43;;
45136;SDS011;30894;51.740;19.498;2023-06-10T03:07:35;8.10;;;5.32;;
45136;SDS011;30894;51.740;19.498;2023-06-10T03:10:02;6.30;;;4.88;;
45136;SDS011;30894;51.740;19.498;2023-06-10T03:12:29;7.38;;;4.85;;
45136;SDS011;30894;51.740;19.498;2023-06-10T03:14:55;9.77;;;4.95;;
45136;SDS011;30894;51.740;19.498;2023-06-10T03:17:21;8.45;;;4.53;;
45136;SDS011;30894;51.740;19.498;2023-06-10T03:19:47;7.60;;;5.40;;
45136;SDS011;30894;51.740;19.498;2023-06-10T03:22:13;7.43;;;5.00;;
45136;SDS011;30894;51.740;19.498;2023-06-10T03:24:41;8.27;;;5.15;;
45136;SDS011;30894;51.740;19.498;2023-06-10T03:27:11;7.68;;;4.75;;
45136;SDS011;30894;51.740;19.498;2023-06-10T03:29:39;6.57;;;4.78;;
45136;SDS011;30894;51.740;19.498;2023-06-10T03:32:05;6.30;;;4.35;;
45136;SDS011;30894;51.740;19.498;2023-06-10T03:34:32;6.38;;;4.70;;
45136;SDS011;30894;51.740;19.498;2023-06-10T03:36:58;8.82;;;5.05;;
45136;SDS011;30894;51.740;19.498;2023-06-10T03:39:25;7.72;;;4.32;;
45136;SDS011;30894;51.740;19.498;2023-06-10T03:41:54;7.47;;;5.07;;
45136;SDS011;30894;51.740;19.498;2023-06-10T03:44:22;5.53;;;3.72;;
45136;SDS011;30894;51.740;19.498;2023-06-10T03:46:49;7.20;;;4.80;;
45136;SDS011;30894;51.740;19.498;2023-06-10T03:49:16;6.60;;;4.70;;
45136;SDS011;30894;51.740;19.498;2023-06-10T03:51:42;5.90;;;4.18;;
45136;SDS011;30894;51.740;19.498;2023-06-10T03:54:09;7.47;;;4.60;;
45136;SDS011;30894;51.740;19.498;2023-06-10T03:56:35;7.15;;;4.65;;
45136;SDS011;30894;51.740;19.498;2023-06-10T03:59:01;7.30;;;4.75;;
45136;SDS011;30894;51.740;19.498;2023-06-10T04:01:27;5.00;;;3.92;;
45136;SDS011;30894;51.740;19.498;2023-06-10T04:04:09;7.07;;;4.07;;
45136;SDS011;30894;51.740;19.498;2023-06-10T04:06:36;7.20;;;4.53;;
45136;SDS011;30894;51.740;19.498;2023-06-10T04:09:02;7.68;;;4.22;;
45136;SDS011;30894;51.740;19.498;2023-06-10T04:11:29;7.55;;;4.97;;
45136;SDS011;30894;51.740;19.498;2023-06-10T04:13:54;7.05;;;5.10;;
45136;SDS011;30894;51.740;19.498;2023-06-10T04:16:21;9.30;;;4.68;;
45136;SDS011;30894;51.740;19.498;2023-06-10T04:18:47;7.60;;;4.82;;
45136;SDS011;30894;51.740;19.498;2023-06-10T04:21:13;9.23;;;5.13;;
45136;SDS011;30894;51.740;19.498;2023-06-10T04:23:39;7.30;;;4.25;;
45136;SDS011;30894;51.740;19.498;2023-06-10T04:26:05;6.60;;;5.00;;
45136;SDS011;30894;51.740;19.498;2023-06-10T04:28:32;7.40;;;4.70;;
45136;SDS011;30894;51.740;19.498;2023-06-10T04:30:58;5.50;;;3.92;;
45136;SDS011;30894;51.740;19.498;2023-06-10T04:33:24;6.15;;;4.43;;
45136;SDS011;30894;51.740;19.498;2023-06-10T04:35:51;8.68;;;5.20;;
45136;SDS011;30894;51.740;19.498;2023-06-10T04:38:17;11.07;;;5.30;;
45136;SDS011;30894;51.740;19.498;2023-06-10T04:40:43;9.85;;;5.50;;
45136;SDS011;30894;51.740;19.498;2023-06-10T04:43:09;10.40;;;5.07;;
45136;SDS011;30894;51.740;19.498;2023-06-10T04:45:36;11.32;;;6.03;;
45136;SDS011;30894;51.740;19.498;2023-06-10T04:48:03;9.18;;;5.55;;
45136;SDS011;30894;51.740;19.498;2023-06-10T04:50:29;9.10;;;5.95;;
45136;SDS011;30894;51.740;19.498;2023-06-10T04:52:55;11.20;;;6.20;;
45136;SDS011;30894;51.740;19.498;2023-06-10T04:55:24;9.35;;;6.00;;
45136;SDS011;30894;51.740;19.498;2023-06-10T04:57:51;17.25;;;6.03;;
45136;SDS011;30894;51.740;19.498;2023-06-10T05:00:17;8.55;;;5.32;;
45136;SDS011;30894;51.740;19.498;2023-06-10T05:02:43;10.80;;;5.88;;
45136;SDS011;30894;51.740;19.498;2023-06-10T05:05:10;7.30;;;5.32;;
45136;SDS011;30894;51.740;19.498;2023-06-10T05:07:36;10.45;;;4.88;;
45136;SDS011;30894;51.740;19.498;2023-06-10T05:10:03;9.02;;;5.22;;
45136;SDS011;30894;51.740;19.498;2023-06-10T05:12:29;9.63;;;5.05;;
45136;SDS011;30894;51.740;19.498;2023-06-10T05:14:55;6.95;;;4.68;;
45136;SDS011;30894;51.740;19.498;2023-06-10T05:17:22;12.25;;;4.78;;
45136;SDS011;30894;51.740;19.498;2023-06-10T05:19:48;7.75;;;4.15;;
45136;SDS011;30894;51.740;19.498;2023-06-10T05:22:14;7.35;;;3.83;;
45136;SDS011;30894;51.740;19.498;2023-06-10T05:24:42;9.43;;;4.50;;
45136;SDS011;30894;51.740;19.498;2023-06-10T05:27:09;6.30;;;4.15;;
45136;SDS011;30894;51.740;19.498;2023-06-10T05:29:36;12.40;;;4.38;;
45136;SDS011;30894;51.740;19.498;2023-06-10T05:32:02;11.48;;;3.67;;
45136;SDS011;30894;51.740;19.498;2023-06-10T05:34:29;6.78;;;4.13;;
45136;SDS011;30894;51.740;19.498;2023-06-10T05:36:56;9.13;;;3.80;;
45136;SDS011;30894;51.740;19.498;2023-06-10T05:39:22;7.10;;;3.72;;
45136;SDS011;30894;51.740;19.498;2023-06-10T05:41:48;5.90;;;3.70;;
45136;SDS011;30894;51.740;19.498;2023-06-10T05:44:15;5.35;;;3.65;;
45136;SDS011;30894;51.740;19.498;2023-06-10T05:46:41;14.27;;;3.83;;
45136;SDS011;30894;51.740;19.498;2023-06-10T05:49:07;8.77;;;3.58;;
45136;SDS011;30894;51.740;19.498;2023-06-10T05:51:33;4.55;;;3.17;;
45136;SDS011;30894;51.740;19.498;2023-06-10T05:54:01;5.80;;;3.55;;
45136;SDS011;30894;51.740;19.498;2023-06-10T05:56:26;5.95;;;3.33;;
45136;SDS011;30894;51.740;19.498;2023-06-10T05:58:53;5.78;;;3.17;;
45136;SDS011;30894;51.740;19.498;2023-06-10T06:01:19;8.23;;;3.00;;
45136;SDS011;30894;51.740;19.498;2023-06-10T06:03:45;7.20;;;3.65;;
45136;SDS011;30894;51.740;19.498;2023-06-10T06:06:11;8.10;;;3.33;;
45136;SDS011;30894;51.740;19.498;2023-06-10T06:08:37;7.57;;;3.13;;
45136;SDS011;30894;51.740;19.498;2023-06-10T06:11:03;6.45;;;3.58;;
45136;SDS011;30894;51.740;19.498;2023-06-10T06:13:30;8.57;;;3.30;;
45136;SDS011;30894;51.740;19.498;2023-06-10T06:15:58;5.68;;;3.53;;
45136;SDS011;30894;51.740;19.498;2023-06-10T06:19:14;6.00;;;3.20;;
45136;SDS011;30894;51.740;19.498;2023-06-10T06:21:41;7.57;;;3.17;;
45136;SDS011;30894;51.740;19.498;2023-06-10T06:24:07;7.47;;;3.20;;
45136;SDS011;30894;51.740;19.498;2023-06-10T06:26:33;5.57;;;3.10;;
45136;SDS011;30894;51.740;19.498;2023-06-10T06:29:00;5.13;;;3.08;;
45136;SDS011;30894;51.740;19.498;2023-06-10T06:31:26;7.85;;;3.20;;
45136;SDS011;30894;51.740;19.498;2023-06-10T06:33:52;5.15;;;3.33;;
45136;SDS011;30894;51.740;19.498;2023-06-10T06:36:18;6.47;;;3.00;;
45136;SDS011;30894;51.740;19.498;2023-06-10T06:38:44;5.88;;;3.22;;
45136;SDS011;30894;51.740;19.498;2023-06-10T06:41:10;6.32;;;3.30;;
45136;SDS011;30894;51.740;19.498;2023-06-10T06:43:37;5.75;;;3.53;;
45136;SDS011;30894;51.740;19.498;2023-06-10T06:46:03;6.82;;;3.42;;
45136;SDS011;30894;51.740;19.498;2023-06-10T06:48:30;8.60;;;3.65;;
45136;SDS011;30894;51.740;19.498;2023-06-10T06:50:56;4.57;;;3.05;;
45136;SDS011;30894;51.740;19.498;2023-06-10T06:53:24;4.88;;;3.10;;
45136;SDS011;30894;51.740;19.498;2023-06-10T06:55:50;4.35;;;3.00;;
45136;SDS011;30894;51.740;19.498;2023-06-10T06:58:16;4.68;;;3.05;;
45136;SDS011;30894;51.740;19.498;2023-06-10T07:00:42;3.55;;;2.83;;
45136;SDS011;30894;51.740;19.498;2023-06-10T07:03:08;5.85;;;3.63;;
45136;SDS011;30894;51.740;19.498;2023-06-10T07:05:34;7.97;;;3.38;;
45136;SDS011;30894;51.740;19.498;2023-06-10T07:08:01;3.63;;;2.75;;
45136;SDS011;30894;51.740;19.498;2023-06-10T07:10:27;6.22;;;3.80;;
45136;SDS011;30894;51.740;19.498;2023-06-10T07:12:54;4.45;;;3.08;;
45136;SDS011;30894;51.740;19.498;2023-06-10T07:15:23;6.03;;;3.22;;
45136;SDS011;30894;51.740;19.498;2023-06-10T07:17:52;5.85;;;2.78;;
45136;SDS011;30894;51.740;19.498;2023-06-10T07:20:18;7.32;;;3.40;;
45136;SDS011;30894;51.740;19.498;2023-06-10T07:22:44;9.18;;;3.17;;
45136;SDS011;30894;51.740;19.498;2023-06-10T07:25:10;4.28;;;3.20;;
45136;SDS011;30894;51.740;19.498;2023-06-10T07:27:38;5.78;;;3.17;;
45136;SDS011;30894;51.740;19.498;2023-06-10T07:30:05;8.73;;;3.30;;
45136;SDS011;30894;51.740;19.498;2023-06-10T07:32:33;5.90;;;3.00;;
45136;SDS011;30894;51.740;19.498;2023-06-10T07:34:59;4.85;;;3.20;;
45136;SDS011;30894;51.740;19.498;2023-06-10T07:37:26;4.30;;;2.58;;
45136;SDS011;30894;51.740;19.498;2023-06-10T07:39:53;5.57;;;3.15;;
45136;SDS011;30894;51.740;19.498;2023-06-10T07:42:22;5.85;;;3.30;;
45136;SDS011;30894;51.740;19.498;2023-06-10T07:44:50;5.88;;;2.78;;
45136;SDS011;30894;51.740;19.498;2023-06-10T07:50:35;6.15;;;3.15;;
45136;SDS011;30894;51.740;19.498;2023-06-10T07:53:27;3.67;;;2.70;;
45136;SDS011;30894;51.740;19.498;2023-06-10T07:56:23;5.40;;;2.95;;
45136;SDS011;30894;51.740;19.498;2023-06-10T07:58:52;4.00;;;3.15;;
45136;SDS011;30894;51.740;19.498;2023-06-10T08:01:27;5.95;;;3.25;;
45136;SDS011;30894;51.740;19.498;2023-06-10T08:03:55;4.82;;;3.33;;
45136;SDS011;30894;51.740;19.498;2023-06-10T08:06:27;5.93;;;2.58;;
45136;SDS011;30894;51.740;19.498;2023-06-10T08:09:04;10.48;;;2.92;;
45136;SDS011;30894;51.740;19.498;2023-06-10T08:12:36;3.75;;;2.88;;
45136;SDS011;30894;51.740;19.498;2023-06-10T08:15:41;4.88;;;2.97;;
45136;SDS011;30894;51.740;19.498;2023-06-10T08:18:07;7.10;;;2.85;;
45136;SDS011;30894;51.740;19.498;2023-06-10T08:20:33;9.57;;;2.20;;
45136;SDS011;30894;51.740;19.498;2023-06-10T08:23:00;3.22;;;2.50;;
45136;SDS011;30894;51.740;19.498;2023-06-10T08:25:27;4.53;;;2.80;;
45136;SDS011;30894;51.740;19.498;2023-06-10T08:27:53;5.82;;;2.47;;
45136;SDS011;30894;51.740;19.498;2023-06-10T08:30:21;5.47;;;2.20;;
45136;SDS011;30894;51.740;19.498;2023-06-10T08:32:52;3.10;;;2.13;;
45136;SDS011;30894;51.740;19.498;2023-06-10T08:35:19;4.32;;;2.42;;
45136;SDS011;30894;51.740;19.498;2023-06-10T08:37:45;2.60;;;2.03;;
45136;SDS011;30894;51.740;19.498;2023-06-10T08:40:11;3.85;;;2.35;;
45136;SDS011;30894;51.740;19.498;2023-06-10T08:42:48;6.05;;;2.30;;
45136;SDS011;30894;51.740;19.498;2023-06-10T08:45:20;4.38;;;2.65;;
45136;SDS011;30894;51.740;19.498;2023-06-10T08:47:52;7.80;;;2.50;;
45136;SDS011;30894;51.740;19.498;2023-06-10T08:50:19;3.85;;;2.55;;
45136;SDS011;30894;51.740;19.498;2023-06-10T08:52:47;3.63;;;2.45;;
45136;SDS011;30894;51.740;19.498;2023-06-10T08:55:18;6.18;;;2.35;;
45136;SDS011;30894;51.740;19.498;2023-06-10T08:57:53;5.18;;;2.45;;
45136;SDS011;30894;51.740;19.498;2023-06-10T09:00:22;4.88;;;2.30;;
45136;SDS011;30894;51.740;19.498;2023-06-10T09:02:51;5.88;;;2.30;;
45136;SDS011;30894;51.740;19.498;2023-06-10T09:05:17;4.05;;;2.25;;
45136;SDS011;30894;51.740;19.498;2023-06-10T09:07:48;3.20;;;2.10;;
45136;SDS011;30894;51.740;19.498;2023-06-10T09:10:16;5.82;;;2.30;;
45136;SDS011;30894;51.740;19.498;2023-06-10T09:12:44;2.72;;;2.22;;
45136;SDS011;30894;51.740;19.498;2023-06-10T09:15:10;3.60;;;2.15;;
45136;SDS011;30894;51.740;19.498;2023-06-10T09:17:38;2.42;;;2.20;;
45136;SDS011;30894;51.740;19.498;2023-06-10T09:20:09;4.30;;;2.10;;
45136;SDS011;30894;51.740;19.498;2023-06-10T09:22:37;4.10;;;2.53;;
45136;SDS011;30894;51.740;19.498;2023-06-10T09:25:05;4.28;;;2.40;;
45136;SDS011;30894;51.740;19.498;2023-06-10T09:30:33;3.60;;;2.30;;
45136;SDS011;30894;51.740;19.498;2023-06-10T09:33:01;3.45;;;2.17;;
45136;SDS011;30894;51.740;19.498;2023-06-10T09:35:37;7.40;;;2.53;;
45136;SDS011;30894;51.740;19.498;2023-06-10T09:38:14;2.97;;;2.25;;
45136;SDS011;30894;51.740;19.498;2023-06-10T09:40:49;4.57;;;2.50;;
45136;SDS011;30894;51.740;19.498;2023-06-10T09:43:17;2.78;;;2.30;;
45136;SDS011;30894;51.740;19.498;2023-06-10T09:45:43;9.02;;;2.58;;
45136;SDS011;30894;51.740;19.498;2023-06-10T09:48:10;3.88;;;2.50;;
45136;SDS011;30894;51.740;19.498;2023-06-10T09:50:43;6.82;;;1.75;;
45136;SDS011;30894;51.740;19.498;2023-06-10T09:53:13;3.17;;;2.20;;
45136;SDS011;30894;51.740;19.498;2023-06-10T09:55:40;2.25;;;1.98;;
45136;SDS011;30894;51.740;19.498;2023-06-10T09:58:07;6.50;;;2.05;;
45136;SDS011;30894;51.740;19.498;2023-06-10T10:00:33;5.63;;;1.80;;
45136;SDS011;30894;51.740;19.498;2023-06-10T10:03:01;6.70;;;2.10;;
45136;SDS011;30894;51.740;19.498;2023-06-10T10:05:27;3.50;;;1.90;;
45136;SDS011;30894;51.740;19.498;2023-06-10T10:07:57;2.22;;;1.85;;
45136;SDS011;30894;51.740;19.498;2023-06-10T10:10:27;4.13;;;2.08;;
45136;SDS011;30894;51.740;19.498;2023-06-10T10:12:56;4.38;;;1.88;;
45136;SDS011;30894;51.740;19.498;2023-06-10T10:15:25;6.05;;;2.03;;
45136;SDS011;30894;51.740;19.498;2023-06-10T10:18:09;3.13;;;1.67;;
45136;SDS011;30894;51.740;19.498;2023-06-10T10:20:37;6.78;;;1.90;;
45136;SDS011;30894;51.740;19.498;2023-06-10T10:23:21;6.05;;;2.20;;
45136;SDS011;30894;51.740;19.498;2023-06-10T10:26:16;6.22;;;1.88;;
45136;SDS011;30894;51.740;19.498;2023-06-10T10:28:45;1.88;;;1.58;;
45136;SDS011;30894;51.740;19.498;2023-06-10T10:31:34;2.28;;;1.65;;
45136;SDS011;30894;51.740;19.498;2023-06-10T10:34:03;5.82;;;1.95;;
45136;SDS011;30894;51.740;19.498;2023-06-10T10:36:32;5.72;;;2.00;;
45136;SDS011;30894;51.740;19.498;2023-06-10T10:39:01;2.53;;;1.52;;
45136;SDS011;30894;51.740;19.498;2023-06-10T10:41:32;4.75;;;1.48;;
45136;SDS011;30894;51.740;19.498;2023-06-10T10:44:02;5.00;;;1.77;;
45136;SDS011;30894;51.740;19.498;2023-06-10T10:46:30;5.20;;;1.90;;
45136;SDS011;30894;51.740;19.498;2023-06-10T10:49:10;23.92;;;2.72;;
45136;SDS011;30894;51.740;19.498;2023-06-10T10:51:57;41.60;;;3.97;;
45136;SDS011;30894;51.740;19.498;2023-06-10T10:54:33;1.95;;;1.50;;
45136;SDS011;30894;51.740;19.498;2023-06-10T10:57:16;4.25;;;1.88;;
45136;SDS011;30894;51.740;19.498;2023-06-10T11:00:00;16.65;;;2.38;;
45136;SDS011;30894;51.740;19.498;2023-06-10T11:02:34;9.05;;;2.08;;
45136;SDS011;30894;51.740;19.498;2023-06-10T11:05:18;2.50;;;1.40;;
45136;SDS011;30894;51.740;19.498;2023-06-10T11:07:57;2.50;;;1.77;;
45136;SDS011;30894;51.740;19.498;2023-06-10T11:10:33;6.20;;;1.70;;
45136;SDS011;30894;51.740;19.498;2023-06-10T11:16:04;5.45;;;1.70;;
45136;SDS011;30894;51.740;19.498;2023-06-10T11:18:44;3.15;;;1.92;;
45136;SDS011;30894;51.740;19.498;2023-06-10T11:25:40;25.50;;;2.97;;
45136;SDS011;30894;51.740;19.498;2023-06-10T11:28:20;2.70;;;1.50;;
45136;SDS011;30894;51.740;19.498;2023-06-10T11:30:56;7.60;;;1.83;;
45136;SDS011;30894;51.740;19.498;2023-06-10T11:33:24;16.25;;;2.42;;
45136;SDS011;30894;51.740;19.498;2023-06-10T11:35:50;5.35;;;1.75;;
45136;SDS011;30894;51.740;19.498;2023-06-10T11:38:17;2.42;;;1.95;;
45136;SDS011;30894;51.740;19.498;2023-06-10T11:40:50;2.13;;;1.48;;
45136;SDS011;30894;51.740;19.498;2023-06-10T11:43:18;5.68;;;2.17;;
45136;SDS011;30894;51.740;19.498;2023-06-10T11:45:45;8.45;;;2.15;;
45136;SDS011;30894;51.740;19.498;2023-06-10T11:48:12;4.50;;;1.90;;
45136;SDS011;30894;51.740;19.498;2023-06-10T11:50:39;12.27;;;2.10;;
45136;SDS011;30894;51.740;19.498;2023-06-10T11:53:08;38.45;;;4.32;;
45136;SDS011;30894;51.740;19.498;2023-06-10T11:55:47;11.75;;;2.10;;
45136;SDS011;30894;51.740;19.498;2023-06-10T11:58:17;3.03;;;1.30;;
45136;SDS011;30894;51.740;19.498;2023-06-10T12:00:47;20.65;;;2.38;;
45136;SDS011;30894;51.740;19.498;2023-06-10T12:03:18;29.63;;;2.85;;
45136;SDS011;30894;51.740;19.498;2023-06-10T12:06:08;6.43;;;1.70;;
45136;SDS011;30894;51.740;19.498;2023-06-10T12:08:34;4.30;;;1.80;;
45136;SDS011;30894;51.740;19.498;2023-06-10T12:11:10;21.70;;;2.78;;
45136;SDS011;30894;51.740;19.498;2023-06-10T12:13:46;8.25;;;2.20;;
45136;SDS011;30894;51.740;19.498;2023-06-10T12:16:14;3.40;;;1.45;;
45136;SDS011;30894;51.740;19.498;2023-06-10T12:18:51;5.07;;;1.70;;
45136;SDS011;30894;51.740;19.498;2023-06-10T12:21:27;5.22;;;1.60;;
45136;SDS011;30894;51.740;19.498;2023-06-10T12:26:39;3.00;;;1.65;;
45136;SDS011;30894;51.740;19.498;2023-06-10T12:34:30;5.47;;;1.48;;
45136;SDS011;30894;51.740;19.498;2023-06-10T12:37:02;6.85;;;2.15;;
45136;SDS011;30894;51.740;19.498;2023-06-10T12:39:41;3.40;;;1.52;;
45136;SDS011;30894;51.740;19.498;2023-06-10T12:42:08;3.03;;;1.98;;
45136;SDS011;30894;51.740;19.498;2023-06-10T12:44:38;3.20;;;1.75;;
45136;SDS011;30894;51.740;19.498;2023-06-10T12:47:09;5.35;;;1.27;;
45136;SDS011;30894;51.740;19.498;2023-06-10T12:49:40;4.82;;;1.77;;
45136;SDS011;30894;51.740;19.498;2023-06-10T12:52:06;13.38;;;1.80;;
45136;SDS011;30894;51.740;19.498;2023-06-10T12:54:33;2.05;;;1.45;;
45136;SDS011;30894;51.740;19.498;2023-06-10T12:57:03;3.63;;;1.63;;
45136;SDS011;30894;51.740;19.498;2023-06-10T12:59:30;4.28;;;1.98;;
45136;SDS011;30894;51.740;19.498;2023-06-10T13:01:57;7.38;;;1.73;;
45136;SDS011;30894;51.740;19.498;2023-06-10T13:04:23;2.92;;;1.55;;
45136;SDS011;30894;51.740;19.498;2023-06-10T13:06:52;4.45;;;1.80;;
45136;SDS011;30894;51.740;19.498;2023-06-10T13:09:22;3.63;;;1.67;;
45136;SDS011;30894;51.740;19.498;2023-06-10T13:11:51;5.28;;;1.70;;
45136;SDS011;30894;51.740;19.498;2023-06-10T13:16:47;3.42;;;1.95;;
45136;SDS011;30894;51.740;19.498;2023-06-10T13:19:13;17.02;;;2.25;;
45136;SDS011;30894;51.740;19.498;2023-06-10T13:21:40;6.47;;;1.60;;
45136;SDS011;30894;51.740;19.498;2023-06-10T13:24:06;4.03;;;1.65;;
45136;SDS011;30894;51.740;19.498;2023-06-10T13:26:32;4.43;;;1.77;;
45136;SDS011;30894;51.740;19.498;2023-06-10T13:28:59;6.78;;;1.63;;
45136;SDS011;30894;51.740;19.498;2023-06-10T13:31:29;3.25;;;2.08;;
45136;SDS011;30894;51.740;19.498;2023-06-10T13:33:55;5.32;;;1.98;;
45136;SDS011;30894;51.740;19.498;2023-06-10T13:36:21;4.65;;;1.83;;
45136;SDS011;30894;51.740;19.498;2023-06-10T13:38:51;14.00;;;2.22;;
45136;SDS011;30894;51.740;19.498;2023-06-10T13:41:18;10.00;;;1.80;;
45136;SDS011;30894;51.740;19.498;2023-06-10T13:43:50;4.63;;;1.60;;
45136;SDS011;30894;51.740;19.498;2023-06-10T13:46:17;3.00;;;1.92;;
45136;SDS011;30894;51.740;19.498;2023-06-10T13:48:43;3.80;;;1.55;;
45136;SDS011;30894;51.740;19.498;2023-06-10T13:51:09;1.92;;;1.70;;
45136;SDS011;30894;51.740;19.498;2023-06-10T13:53:37;2.85;;;1.75;;
45136;SDS011;30894;51.740;19.498;2023-06-10T13:56:03;2.95;;;1.90;;
45136;SDS011;30894;51.740;19.498;2023-06-10T13:58:31;2.97;;;1.70;;
45136;SDS011;30894;51.740;19.498;2023-06-10T14:00:57;6.45;;;2.17;;
45136;SDS011;30894;51.740;19.498;2023-06-10T14:03:24;3.30;;;1.88;;
45136;SDS011;30894;51.740;19.498;2023-06-10T14:06:01;5.65;;;2.03;;
45136;SDS011;30894;51.740;19.498;2023-06-10T14:08:28;4.28;;;1.90;;
45136;SDS011;30894;51.740;19.498;2023-06-10T14:10:55;7.88;;;1.92;;
45136;SDS011;30894;51.740;19.498;2023-06-10T14:13:22;2.88;;;1.73;;
45136;SDS011;30894;51.740;19.498;2023-06-10T14:15:48;3.80;;;2.08;;
45136;SDS011;30894;51.740;19.498;2023-06-10T14:18:15;4.80;;;1.92;;
45136;SDS011;30894;51.740;19.498;2023-06-10T14:20:41;3.90;;;1.85;;
45136;SDS011;30894;51.740;19.498;2023-06-10T14:23:07;9.88;;;1.90;;
45136;SDS011;30894;51.740;19.498;2023-06-10T14:25:33;4.55;;;2.25;;
45136;SDS011;30894;51.740;19.498;2023-06-10T14:28:00;3.17;;;1.90;;
45136;SDS011;30894;51.740;19.498;2023-06-10T14:30:26;3.72;;;1.58;;
45136;SDS011;30894;51.740;19.498;2023-06-10T14:32:52;4.38;;;2.00;;
45136;SDS011;30894;51.740;19.498;2023-06-10T14:35:21;2.90;;;1.83;;
45136;SDS011;30894;51.740;19.498;2023-06-10T14:37:47;3.70;;;1.55;;
45136;SDS011;30894;51.740;19.498;2023-06-10T14:40:14;3.72;;;1.85;;
45136;SDS011;30894;51.740;19.498;2023-06-10T14:42:40;3.80;;;1.48;;
45136;SDS011;30894;51.740;19.498;2023-06-10T14:45:06;4.88;;;1.98;;
45136;SDS011;30894;51.740;19.498;2023-06-10T14:47:35;4.47;;;1.85;;
45136;SDS011;30894;51.740;19.498;2023-06-10T14:50:01;5.03;;;1.95;;
45136;SDS011;30894;51.740;19.498;2023-06-10T14:52:27;3.17;;;2.08;;
45136;SDS011;30894;51.740;19.498;2023-06-10T14:54:53;4.68;;;1.90;;
45136;SDS011;30894;51.740;19.498;2023-06-10T14:57:19;2.95;;;1.73;;
45136;SDS011;30894;51.740;19.498;2023-06-10T14:59:45;7.93;;;2.05;;
45136;SDS011;30894;51.740;19.498;2023-06-10T15:02:14;4.28;;;1.88;;
45136;SDS011;30894;51.740;19.498;2023-06-10T15:04:40;3.30;;;1.80;;
45136;SDS011;30894;51.740;19.498;2023-06-10T15:07:06;3.17;;;1.98;;
45136;SDS011;30894;51.740;19.498;2023-06-10T15:09:32;2.35;;;1.85;;
45136;SDS011;30894;51.740;19.498;2023-06-10T15:11:58;2.78;;;1.80;;